sensor_id;sensor_type;location;lat;lon;timestamp;pressure;altitude;pressure_sealevel;temperature;humidity
18533;BME280;9396;51.510;11.934;2022-12-10T00:00:05;99728.94;;;1.20;100.00
18533;BME280;9396;51.510;11.934;2022-12-10T00:02:34;99724.56;;;1.55;100.00
18533;BME280;9396;51.510;11.934;2022-12-10T00:05:02;99722.72;;;1.68;100.00
18533;BME280;9396;51.510;11.934;2022-12-10T00:07:29;99725.91;;;1.61;100.00
18533;BME280;9396;51.510;11.934;2022-12-10T00:09:55;99721.22;;;1.88;100.00
18533;BME280;9396;51.510;11.934;2022-12-10T00:12:22;99729.28;;;1.74;100.00
18533;BME280;9396;51.510;11.934;2022-12-10T00:14:49;99732.53;;;1.88;100.00
18533;BME280;9396;51.510;11.934;2022-12-10T00:17:15;99738.81;;;1.75;100.00
18533;BME280;9396;51.510;11.934;2022-12-10T00:19:42;99732.28;;;1.80;100.00
18533;BME280;9396;51.510;11.934;2022-12-10T00:22:10;99730.53;;;2.03;100.00
18533;BME280;9396;51.510;11.934;2022-12-10T00:24:37;99734.81;;;1.93;100.00
18533;BME280;9396;51.510;11.934;2022-12-10T00:27:03;99737.09;;;1.97;100.00
18533;BME280;9396;51.510;11.934;2022-12-10T00:29:30;99725.84;;;1.84;100.00
18533;BME280;9396;51.510;11.934;2022-12-10T00:31:57;99727.88;;;1.81;100.00
18533;BME280;9396;51.510;11.934;2022-12-10T00:34:23;99729.44;;;1.49;100.00
18533;BME280;9396;51.510;11.934;2022-12-10T00:36:50;99728.81;;;1.80;100.00
18533;BME280;9396;51.510;11.934;2022-12-10T00:39:20;99728.44;;;1.73;100.00
18533;BME280;9396;51.510;11.934;2022-12-10T00:41:47;99719.91;;;1.93;100.00
18533;BME280;9396;51.510;11.934;2022-12-10T00:44:14;99727.81;;;2.04;100.00
18533;BME280;9396;51.510;11.934;2022-12-10T00:46:42;99727.50;;;1.74;100.00
18533;BME280;9396;51.510;11.934;2022-12-10T00:49:09;99729.31;;;1.96;100.00
18533;BME280;9396;51.510;11.934;2022-12-10T00:51:36;99734.38;;;1.41;100.00
18533;BME280;9396;51.510;11.934;2022-12-10T00:54:03;99737.78;;;1.54;100.00
18533;BME280;9396;51.510;11.934;2022-12-10T00:56:32;99741.66;;;1.72;100.00
18533;BME280;9396;51.510;11.934;2022-12-10T00:58:59;99739.88;;;1.72;100.00
18533;BME280;9396;51.510;11.934;2022-12-10T01:01:28;99737.09;;;1.63;100.00
18533;BME280;9396;51.510;11.934;2022-12-10T01:03:58;99744.31;;;1.48;100.00
18533;BME280;9396;51.510;11.934;2022-12-10T01:06:27;99731.50;;;1.56;100.00
18533;BME280;9396;51.510;11.934;2022-12-10T01:08:56;99751.69;;;1.43;100.00
18533;BME280;9396;51.510;11.934;2022-12-10T01:11:30;99755.34;;;1.41;100.00
18533;BME280;9396;51.510;11.934;2022-12-10T01:13:59;99760.19;;;1.34;100.00
18533;BME280;9396;51.510;11.934;2022-12-10T01:16:26;99750.94;;;1.65;100.00
18533;BME280;9396;51.510;11.934;2022-12-10T01:18:53;99755.31;;;1.64;100.00
18533;BME280;9396;51.510;11.934;2022-12-10T01:21:20;99752.81;;;1.63;100.00
18533;BME280;9396;51.510;11.934;2022-12-10T01:23:49;99750.56;;;1.58;100.00
18533;BME280;9396;51.510;11.934;2022-12-10T01:26:18;99759.34;;;1.57;100.00
18533;BME280;9396;51.510;11.934;2022-12-10T01:28:45;99756.53;;;1.13;100.00
18533;BME280;9396;51.510;11.934;2022-12-10T01:31:15;99677.53;;;0.95;100.00
18533;BME280;9396;51.510;11.934;2022-12-10T01:33:42;99754.34;;;1.54;100.00
18533;BME280;9396;51.510;11.934;2022-12-10T01:36:11;99751.38;;;1.59;100.00
18533;BME280;9396;51.510;11.934;2022-12-10T01:38:38;99756.97;;;1.31;100.00
18533;BME280;9396;51.510;11.934;2022-12-10T01:41:05;99759.34;;;1.34;100.00
18533;BME280;9396;51.510;11.934;2022-12-10T01:43:50;99760.16;;;1.47;100.00
18533;BME280;9396;51.510;11.934;2022-12-10T01:46:19;99730.56;;;0.74;100.00
18533;BME280;9396;51.510;11.934;2022-12-10T01:48:46;99764.25;;;1.15;100.00
18533;BME280;9396;51.510;11.934;2022-12-10T01:51:14;99764.00;;;1.06;100.00
18533;BME280;9396;51.510;11.934;2022-12-10T01:53:41;99761.06;;;1.35;100.00
18533;BME280;9396;51.510;11.934;2022-12-10T01:56:09;99756.75;;;1.34;100.00
18533;BME280;9396;51.510;11.934;2022-12-10T01:58:37;99761.38;;;1.30;100.00
18533;BME280;9396;51.510;11.934;2022-12-10T02:01:07;99766.22;;;1.24;100.00
18533;BME280;9396;51.510;11.934;2022-12-10T02:03:44;99772.91;;;1.28;100.00
18533;BME280;9396;51.510;11.934;2022-12-10T02:06:27;99773.94;;;1.01;100.00
18533;BME280;9396;51.510;11.934;2022-12-10T02:09:02;99771.16;;;1.28;100.00
18533;BME280;9396;51.510;11.934;2022-12-10T02:11:37;99768.19;;;1.33;100.00
18533;BME280;9396;51.510;11.934;2022-12-10T02:14:12;99768.34;;;1.19;100.00
18533;BME280;9396;51.510;11.934;2022-12-10T02:16:46;99766.09;;;1.25;100.00
18533;BME280;9396;51.510;11.934;2022-12-10T02:19:19;99759.38;;;1.10;100.00
18533;BME280;9396;51.510;11.934;2022-12-10T02:21:49;99756.34;;;1.27;100.00
18533;BME280;9396;51.510;11.934;2022-12-10T02:24:27;99743.88;;;1.31;100.00
18533;BME280;9396;51.510;11.934;2022-12-10T02:27:00;99761.53;;;1.40;100.00
18533;BME280;9396;51.510;11.934;2022-12-10T02:29:32;99763.00;;;1.44;100.00
18533;BME280;9396;51.510;11.934;2022-12-10T02:32:04;99756.84;;;1.32;100.00
18533;BME280;9396;51.510;11.934;2022-12-10T02:34:34;99762.59;;;1.37;100.00
18533;BME280;9396;51.510;11.934;2022-12-10T02:37:05;99755.69;;;1.36;100.00
18533;BME280;9396;51.510;11.934;2022-12-10T02:39:37;99760.81;;;1.14;100.00
18533;BME280;9396;51.510;11.934;2022-12-10T02:42:06;99757.69;;;1.09;100.00
18533;BME280;9396;51.510;11.934;2022-12-10T02:44:37;99756.94;;;1.07;100.00
18533;BME280;9396;51.510;11.934;2022-12-10T02:47:05;99756.53;;;1.13;100.00
18533;BME280;9396;51.510;11.934;2022-12-10T02:49:34;99755.06;;;1.09;100.00
18533;BME280;9396;51.510;11.934;2022-12-10T02:52:07;99756.13;;;1.30;100.00
18533;BME280;9396;51.510;11.934;2022-12-10T02:54:40;99759.03;;;1.38;100.00
18533;BME280;9396;51.510;11.934;2022-12-10T02:57:27;99759.72;;;1.29;100.00
18533;BME280;9396;51.510;11.934;2022-12-10T03:00:06;99758.22;;;1.01;100.00
18533;BME280;9396;51.510;11.934;2022-12-10T03:02:43;99763.38;;;1.27;100.00
18533;BME280;9396;51.510;11.934;2022-12-10T03:05:15;99765.94;;;1.39;100.00
18533;BME280;9396;51.510;11.934;2022-12-10T03:07:48;99767.78;;;1.26;100.00
18533;BME280;9396;51.510;11.934;2022-12-10T03:10:21;99758.13;;;1.03;100.00
18533;BME280;9396;51.510;11.934;2022-12-10T03:12:56;99765.91;;;0.92;100.00
18533;BME280;9396;51.510;11.934;2022-12-10T03:15:27;99771.00;;;1.06;100.00
18533;BME280;9396;51.510;11.934;2022-12-10T03:17:57;99765.91;;;0.92;100.00
18533;BME280;9396;51.510;11.934;2022-12-10T03:20:26;99776.16;;;0.95;100.00
18533;BME280;9396;51.510;11.934;2022-12-10T03:22:53;99778.19;;;1.15;100.00
18533;BME280;9396;51.510;11.934;2022-12-10T03:25:23;99773.06;;;1.37;100.00
18533;BME280;9396;51.510;11.934;2022-12-10T03:27:54;99779.94;;;1.51;100.00
18533;BME280;9396;51.510;11.934;2022-12-10T03:30:20;99776.31;;;1.17;100.00
18533;BME280;9396;51.510;11.934;2022-12-10T03:32:49;99767.16;;;1.46;100.00
18533;BME280;9396;51.510;11.934;2022-12-10T03:35:17;99766.78;;;1.40;100.00
18533;BME280;9396;51.510;11.934;2022-12-10T03:37:45;99768.38;;;1.06;100.00
18533;BME280;9396;51.510;11.934;2022-12-10T03:40:13;99768.84;;;0.87;100.00
18533;BME280;9396;51.510;11.934;2022-12-10T03:42:40;99765.75;;;1.06;100.00
18533;BME280;9396;51.510;11.934;2022-12-10T03:45:07;99771.97;;;1.29;100.00
18533;BME280;9396;51.510;11.934;2022-12-10T03:47:34;99757.41;;;1.48;100.00
18533;BME280;9396;51.510;11.934;2022-12-10T03:50:03;99765.31;;;1.36;100.00
18533;BME280;9396;51.510;11.934;2022-12-10T03:52:30;99767.94;;;1.36;100.00
18533;BME280;9396;51.510;11.934;2022-12-10T03:54:56;99773.06;;;1.37;100.00
18533;BME280;9396;51.510;11.934;2022-12-10T03:57:23;99764.19;;;1.03;100.00
18533;BME280;9396;51.510;11.934;2022-12-10T03:59:49;99765.22;;;1.14;100.00
18533;BME280;9396;51.510;11.934;2022-12-10T04:02:16;99768.66;;;1.14;100.00
18533;BME280;9396;51.510;11.934;2022-12-10T04:04:43;99768.28;;;1.31;100.00
18533;BME280;9396;51.510;11.934;2022-12-10T04:07:11;99771.69;;;1.44;100.00
18533;BME280;9396;51.510;11.934;2022-12-10T04:09:38;99776.09;;;1.20;100.00
18533;BME280;9396;51.510;11.934;2022-12-10T04:12:05;99775.09;;;1.10;100.00
18533;BME280;9396;51.510;11.934;2022-12-10T04:14:32;99773.97;;;1.25;100.00
18533;BME280;9396;51.510;11.934;2022-12-10T04:17:15;99781.78;;;1.01;100.00
18533;BME280;9396;51.510;11.934;2022-12-10T04:19:42;99782.00;;;0.98;100.00
18533;BME280;9396;51.510;11.934;2022-12-10T04:22:10;99778.34;;;1.01;100.00
18533;BME280;9396;51.510;11.934;2022-12-10T04:24:54;99772.88;;;1.04;100.00
18533;BME280;9396;51.510;11.934;2022-12-10T04:27:39;99771.47;;;1.24;100.00
18533;BME280;9396;51.510;11.934;2022-12-10T04:30:09;99766.13;;;1.49;100.00
18533;BME280;9396;51.510;11.934;2022-12-10T04:32:36;99768.72;;;1.25;100.00
18533;BME280;9396;51.510;11.934;2022-12-10T04:35:04;99754.22;;;1.32;100.00
18533;BME280;9396;51.510;11.934;2022-12-10T04:37:32;99769.09;;;1.55;100.00
18533;BME280;9396;51.510;11.934;2022-12-10T04:39:59;99760.50;;;1.42;100.00
18533;BME280;9396;51.510;11.934;2022-12-10T04:42:25;99762.56;;;1.26;100.00
18533;BME280;9396;51.510;11.934;2022-12-10T04:44:52;99765.84;;;1.17;100.00
18533;BME280;9396;51.510;11.934;2022-12-10T04:47:18;99764.84;;;1.31;100.00
18533;BME280;9396;51.510;11.934;2022-12-10T04:49:45;99768.06;;;1.34;100.00
18533;BME280;9396;51.510;11.934;2022-12-10T04:52:13;99767.78;;;1.02;100.00
18533;BME280;9396;51.510;11.934;2022-12-10T04:54:42;99770.78;;;0.73;100.00
18533;BME280;9396;51.510;11.934;2022-12-10T04:57:09;99772.34;;;0.75;100.00
18533;BME280;9396;51.510;11.934;2022-12-10T04:59:36;99758.06;;;0.92;100.00
18533;BME280;9396;51.510;11.934;2022-12-10T05:02:03;99777.03;;;1.19;100.00
18533;BME280;9396;51.510;11.934;2022-12-10T05:04:29;99773.94;;;1.01;100.00
18533;BME280;9396;51.510;11.934;2022-12-10T05:06:56;99778.97;;;1.04;100.00
18533;BME280;9396;51.510;11.934;2022-12-10T05:09:23;99774.81;;;1.26;100.00
18533;BME280;9396;51.510;11.934;2022-12-10T05:11:51;99784.88;;;1.43;100.00
18533;BME280;9396;51.510;11.934;2022-12-10T05:14:17;99775.75;;;1.01;100.00
18533;BME280;9396;51.510;11.934;2022-12-10T05:16:44;99778.03;;;0.93;100.00
18533;BME280;9396;51.510;11.934;2022-12-10T05:19:11;99772.63;;;0.96;100.00
18533;BME280;9396;51.510;11.934;2022-12-10T05:21:38;99770.94;;;0.95;100.00
18533;BME280;9396;51.510;11.934;2022-12-10T05:24:23;99773.25;;;0.87;100.00
18533;BME280;9396;51.510;11.934;2022-12-10T05:26:51;99772.94;;;0.91;100.00
18533;BME280;9396;51.510;11.934;2022-12-10T05:29:18;99773.84;;;1.03;100.00
18533;BME280;9396;51.510;11.934;2022-12-10T05:31:45;99780.69;;;0.80;100.00
18533;BME280;9396;51.510;11.934;2022-12-10T05:34:12;99779.91;;;0.67;100.00
18533;BME280;9396;51.510;11.934;2022-12-10T05:36:39;99771.44;;;0.39;100.00
18533;BME280;9396;51.510;11.934;2022-12-10T05:39:07;99702.13;;;0.08;100.00
18533;BME280;9396;51.510;11.934;2022-12-10T05:41:36;99792.00;;;0.81;100.00
18533;BME280;9396;51.510;11.934;2022-12-10T05:44:05;99793.25;;;0.88;100.00
18533;BME280;9396;51.510;11.934;2022-12-10T05:46:34;99736.25;;;0.55;100.00
18533;BME280;9396;51.510;11.934;2022-12-10T05:49:02;99797.72;;;0.98;100.00
18533;BME280;9396;51.510;11.934;2022-12-10T05:51:31;99793.09;;;1.02;100.00
18533;BME280;9396;51.510;11.934;2022-12-10T05:53:59;99795.50;;;0.69;100.00
18533;BME280;9396;51.510;11.934;2022-12-10T05:56:27;99796.97;;;0.73;100.00
18533;BME280;9396;51.510;11.934;2022-12-10T05:58:57;99794.00;;;0.77;100.00
18533;BME280;9396;51.510;11.934;2022-12-10T06:01:27;99792.97;;;0.67;100.00
18533;BME280;9396;51.510;11.934;2022-12-10T06:03:54;99801.97;;;0.76;100.00
18533;BME280;9396;51.510;11.934;2022-12-10T06:06:23;99803.59;;;0.89;100.00
18533;BME280;9396;51.510;11.934;2022-12-10T06:08:50;99796.97;;;1.09;100.00
18533;BME280;9396;51.510;11.934;2022-12-10T06:11:18;99789.72;;;1.13;100.00
18533;BME280;9396;51.510;11.934;2022-12-10T06:13:45;99793.28;;;1.12;100.00
18533;BME280;9396;51.510;11.934;2022-12-10T06:16:13;99802.34;;;0.95;100.00
18533;BME280;9396;51.510;11.934;2022-12-10T06:18:42;99800.06;;;1.14;100.00
18533;BME280;9396;51.510;11.934;2022-12-10T06:21:10;99802.66;;;1.03;100.00
18533;BME280;9396;51.510;11.934;2022-12-10T06:23:38;99750.22;;;0.92;100.00
18533;BME280;9396;51.510;11.934;2022-12-10T06:26:05;99808.81;;;1.02;100.00
18533;BME280;9396;51.510;11.934;2022-12-10T06:28:32;99810.91;;;1.09;100.00
18533;BME280;9396;51.510;11.934;2022-12-10T06:30:58;99816.78;;;1.00;100.00
18533;BME280;9396;51.510;11.934;2022-12-10T06:33:25;99816.97;;;1.10;100.00
18533;BME280;9396;51.510;11.934;2022-12-10T06:35:53;99815.88;;;1.25;100.00
18533;BME280;9396;51.510;11.934;2022-12-10T06:38:20;99818.06;;;1.31;100.00
18533;BME280;9396;51.510;11.934;2022-12-10T06:40:47;99819.78;;;1.43;100.00
18533;BME280;9396;51.510;11.934;2022-12-10T06:43:13;99819.19;;;1.40;100.00
18533;BME280;9396;51.510;11.934;2022-12-10T06:45:41;99824.03;;;1.57;100.00
18533;BME280;9396;51.510;11.934;2022-12-10T06:48:08;99808.09;;;1.36;100.00
18533;BME280;9396;51.510;11.934;2022-12-10T06:50:35;99832.28;;;1.63;100.00
18533;BME280;9396;51.510;11.934;2022-12-10T06:53:03;99831.00;;;1.45;100.00
18533;BME280;9396;51.510;11.934;2022-12-10T06:55:30;99838.66;;;1.36;100.00
18533;BME280;9396;51.510;11.934;2022-12-10T06:57:57;99838.63;;;1.48;100.00
18533;BME280;9396;51.510;11.934;2022-12-10T07:00:23;99836.34;;;1.44;100.00
18533;BME280;9396;51.510;11.934;2022-12-10T07:02:50;99838.31;;;1.53;100.00
18533;BME280;9396;51.510;11.934;2022-12-10T07:05:16;99841.66;;;1.55;100.00
18533;BME280;9396;51.510;11.934;2022-12-10T07:07:43;99841.31;;;1.59;100.00
18533;BME280;9396;51.510;11.934;2022-12-10T07:10:12;99848.22;;;1.37;100.00
18533;BME280;9396;51.510;11.934;2022-12-10T07:12:39;99846.16;;;1.29;100.00
18533;BME280;9396;51.510;11.934;2022-12-10T07:15:07;99839.06;;;1.19;100.00
18533;BME280;9396;51.510;11.934;2022-12-10T07:17:33;99853.56;;;1.35;100.00
18533;BME280;9396;51.510;11.934;2022-12-10T07:20:00;99834.94;;;1.27;100.00
18533;BME280;9396;51.510;11.934;2022-12-10T07:22:27;99846.34;;;1.39;100.00
18533;BME280;9396;51.510;11.934;2022-12-10T07:24:54;99842.63;;;1.41;100.00
18533;BME280;9396;51.510;11.934;2022-12-10T07:27:22;99852.97;;;1.32;100.00
18533;BME280;9396;51.510;11.934;2022-12-10T07:29:49;99849.56;;;1.42;100.00
18533;BME280;9396;51.510;11.934;2022-12-10T07:32:15;99857.16;;;0.73;100.00
18533;BME280;9396;51.510;11.934;2022-12-10T07:34:42;99859.53;;;0.63;100.00
18533;BME280;9396;51.510;11.934;2022-12-10T07:37:09;99857.19;;;1.09;100.00
18533;BME280;9396;51.510;11.934;2022-12-10T07:39:36;99856.53;;;1.18;100.00
18533;BME280;9396;51.510;11.934;2022-12-10T07:42:02;99849.84;;;1.14;100.00
18533;BME280;9396;51.510;11.934;2022-12-10T07:44:31;99855.00;;;1.03;100.00
18533;BME280;9396;51.510;11.934;2022-12-10T07:46:57;99857.16;;;1.22;100.00
18533;BME280;9396;51.510;11.934;2022-12-10T07:49:24;99859.28;;;1.04;100.00
18533;BME280;9396;51.510;11.934;2022-12-10T07:51:51;99861.78;;;1.18;100.00
18533;BME280;9396;51.510;11.934;2022-12-10T07:54:18;99863.41;;;1.44;100.00
18533;BME280;9396;51.510;11.934;2022-12-10T07:56:45;99860.66;;;1.46;100.00
18533;BME280;9396;51.510;11.934;2022-12-10T07:59:12;99861.22;;;1.38;100.00
18533;BME280;9396;51.510;11.934;2022-12-10T08:01:40;99862.94;;;1.50;100.00
18533;BME280;9396;51.510;11.934;2022-12-10T08:04:06;99864.41;;;1.54;100.00
18533;BME280;9396;51.510;11.934;2022-12-10T08:06:33;99868.25;;;1.61;100.00
18533;BME280;9396;51.510;11.934;2022-12-10T08:09:00;99871.25;;;1.44;100.00
18533;BME280;9396;51.510;11.934;2022-12-10T08:11:27;99869.75;;;1.53;100.00
18533;BME280;9396;51.510;11.934;2022-12-10T08:13:54;99869.19;;;1.60;100.00
18533;BME280;9396;51.510;11.934;2022-12-10T08:16:22;99869.06;;;1.74;100.00
18533;BME280;9396;51.510;11.934;2022-12-10T08:18:52;99864.25;;;1.68;100.00
18533;BME280;9396;51.510;11.934;2022-12-10T08:21:20;99877.53;;;1.78;100.00
18533;BME280;9396;51.510;11.934;2022-12-10T08:23:47;99883.34;;;1.94;100.00
18533;BME280;9396;51.510;11.934;2022-12-10T08:26:16;99892.28;;;1.55;100.00
18533;BME280;9396;51.510;11.934;2022-12-10T08:28:43;99890.09;;;1.49;100.00
18533;BME280;9396;51.510;11.934;2022-12-10T08:31:11;99891.28;;;1.33;100.00
18533;BME280;9396;51.510;11.934;2022-12-10T08:33:39;99889.75;;;1.54;100.00
18533;BME280;9396;51.510;11.934;2022-12-10T08:36:09;99865.22;;;1.31;100.00
18533;BME280;9396;51.510;11.934;2022-12-10T08:38:38;99893.97;;;1.56;100.00
18533;BME280;9396;51.510;11.934;2022-12-10T08:41:06;99890.25;;;1.59;100.00
18533;BME280;9396;51.510;11.934;2022-12-10T08:43:33;99886.59;;;1.61;100.00
18533;BME280;9396;51.510;11.934;2022-12-10T08:45:59;99895.56;;;1.34;99.81
18533;BME280;9396;51.510;11.934;2022-12-10T08:48:26;99897.09;;;1.61;100.00
18533;BME280;9396;51.510;11.934;2022-12-10T08:50:53;99897.09;;;1.61;100.00
18533;BME280;9396;51.510;11.934;2022-12-10T08:53:21;99907.94;;;1.44;100.00
18533;BME280;9396;51.510;11.934;2022-12-10T08:55:49;99900.34;;;1.52;100.00
18533;BME280;9396;51.510;11.934;2022-12-10T08:58:16;99902.22;;;1.63;100.00
18533;BME280;9396;51.510;11.934;2022-12-10T09:00:43;99898.63;;;1.40;99.80
18533;BME280;9396;51.510;11.934;2022-12-10T09:03:10;99894.19;;;1.41;100.00
18533;BME280;9396;51.510;11.934;2022-12-10T09:05:36;99897.22;;;1.47;100.00
18533;BME280;9396;51.510;11.934;2022-12-10T09:08:03;99900.47;;;1.51;100.00
18533;BME280;9396;51.510;11.934;2022-12-10T09:10:31;99904.28;;;1.34;99.65
18533;BME280;9396;51.510;11.934;2022-12-10T09:12:58;99906.03;;;1.46;100.00
18533;BME280;9396;51.510;11.934;2022-12-10T09:15:25;99897.03;;;1.38;99.99
18533;BME280;9396;51.510;11.934;2022-12-10T09:17:51;99903.84;;;1.40;100.00
18533;BME280;9396;51.510;11.934;2022-12-10T09:20:18;99904.75;;;1.16;100.00
18533;BME280;9396;51.510;11.934;2022-12-10T09:22:44;99898.94;;;1.23;100.00
18533;BME280;9396;51.510;11.934;2022-12-10T09:25:11;99901.41;;;1.14;100.00
18533;BME280;9396;51.510;11.934;2022-12-10T09:27:42;99903.91;;;1.15;100.00
18533;BME280;9396;51.510;11.934;2022-12-10T09:30:10;99906.66;;;1.01;100.00
18533;BME280;9396;51.510;11.934;2022-12-10T09:32:37;99913.25;;;1.06;100.00
18533;BME280;9396;51.510;11.934;2022-12-10T09:35:04;99916.91;;;1.04;100.00
18533;BME280;9396;51.510;11.934;2022-12-10T09:37:32;99915.41;;;1.25;100.00
18533;BME280;9396;51.510;11.934;2022-12-10T09:39:59;99916.53;;;1.34;100.00
18533;BME280;9396;51.510;11.934;2022-12-10T09:42:34;99927.59;;;1.01;100.00
18533;BME280;9396;51.510;11.934;2022-12-10T09:45:09;99924.44;;;0.58;100.00
18533;BME280;9396;51.510;11.934;2022-12-10T09:47:46;99930.31;;;0.87;100.00
18533;BME280;9396;51.510;11.934;2022-12-10T09:50:19;99853.25;;;0.41;100.00
18533;BME280;9396;51.510;11.934;2022-12-10T09:52:47;99922.13;;;0.79;100.00
18533;BME280;9396;51.510;11.934;2022-12-10T09:55:18;99927.25;;;0.80;100.00
18533;BME280;9396;51.510;11.934;2022-12-10T09:57:48;99932.69;;;0.52;100.00
18533;BME280;9396;51.510;11.934;2022-12-10T10:00:20;99922.66;;;0.20;100.00
18533;BME280;9396;51.510;11.934;2022-12-10T10:02:48;99867.97;;;0.17;100.00
18533;BME280;9396;51.510;11.934;2022-12-10T10:05:20;99916.97;;;0.52;100.00
18533;BME280;9396;51.510;11.934;2022-12-10T10:07:50;99909.38;;;0.62;100.00
18533;BME280;9396;51.510;11.934;2022-12-10T10:10:22;99909.38;;;0.87;100.00
18533;BME280;9396;51.510;11.934;2022-12-10T10:12:52;99910.28;;;1.11;100.00
18533;BME280;9396;51.510;11.934;2022-12-10T10:15:25;99908.00;;;1.19;100.00
18533;BME280;9396;51.510;11.934;2022-12-10T10:17:56;99910.47;;;1.33;100.00
18533;BME280;9396;51.510;11.934;2022-12-10T10:20:23;99904.28;;;1.22;100.00
18533;BME280;9396;51.510;11.934;2022-12-10T10:22:51;99908.78;;;1.32;100.00
18533;BME280;9396;51.510;11.934;2022-12-10T10:25:19;99905.16;;;1.22;100.00
18533;BME280;9396;51.510;11.934;2022-12-10T10:27:45;99903.97;;;1.39;100.00
18533;BME280;9396;51.510;11.934;2022-12-10T10:30:16;99909.72;;;1.44;100.00
18533;BME280;9396;51.510;11.934;2022-12-10T10:32:49;99907.88;;;1.57;100.00
18533;BME280;9396;51.510;11.934;2022-12-10T10:35:25;99902.09;;;1.64;100.00
18533;BME280;9396;51.510;11.934;2022-12-10T10:37:56;99907.56;;;1.61;100.00
18533;BME280;9396;51.510;11.934;2022-12-10T10:40:26;99908.06;;;1.66;99.68
18533;BME280;9396;51.510;11.934;2022-12-10T10:42:55;99910.19;;;1.61;100.00
18533;BME280;9396;51.510;11.934;2022-12-10T10:45:35;99900.31;;;1.65;99.71
18533;BME280;9396;51.510;11.934;2022-12-10T10:48:08;99900.13;;;1.55;100.00
18533;BME280;9396;51.510;11.934;2022-12-10T10:50:38;99895.41;;;1.60;100.00
18533;BME280;9396;51.510;11.934;2022-12-10T10:53:29;99902.53;;;1.82;100.00
18533;BME280;9396;51.510;11.934;2022-12-10T10:55:59;99898.53;;;1.89;100.00
18533;BME280;9396;51.510;11.934;2022-12-10T10:58:28;99907.63;;;1.96;100.00
18533;BME280;9396;51.510;11.934;2022-12-10T11:00:57;99903.34;;;1.95;99.49
18533;BME280;9396;51.510;11.934;2022-12-10T11:03:26;99895.81;;;1.90;99.62
18533;BME280;9396;51.510;11.934;2022-12-10T11:05:56;99896.69;;;1.78;99.61
18533;BME280;9396;51.510;11.934;2022-12-10T11:08:25;99897.38;;;1.93;100.00
18533;BME280;9396;51.510;11.934;2022-12-10T11:10:57;99901.22;;;1.76;100.00
18533;BME280;9396;51.510;11.934;2022-12-10T11:13:28;99898.66;;;1.87;100.00
18533;BME280;9396;51.510;11.934;2022-12-10T11:15:57;99892.84;;;1.95;100.00
18533;BME280;9396;51.510;11.934;2022-12-10T11:18:30;99896.38;;;2.06;99.91
18533;BME280;9396;51.510;11.934;2022-12-10T11:21:00;99889.56;;;2.04;99.47
18533;BME280;9396;51.510;11.934;2022-12-10T11:23:28;99898.75;;;2.09;99.38
18533;BME280;9396;51.510;11.934;2022-12-10T11:26:01;99894.19;;;2.00;99.07
18533;BME280;9396;51.510;11.934;2022-12-10T11:28:41;99898.34;;;2.03;99.60
18533;BME280;9396;51.510;11.934;2022-12-10T11:31:26;99900.22;;;2.13;99.52
18533;BME280;9396;51.510;11.934;2022-12-10T11:34:06;99901.09;;;2.01;98.67
18533;BME280;9396;51.510;11.934;2022-12-10T11:36:38;99899.00;;;2.06;99.43
18533;BME280;9396;51.510;11.934;2022-12-10T11:39:21;99901.88;;;1.91;99.55
18533;BME280;9396;51.510;11.934;2022-12-10T11:41:58;99901.53;;;2.19;99.92
18533;BME280;9396;51.510;11.934;2022-12-10T11:44:34;99900.13;;;2.26;98.98
18533;BME280;9396;51.510;11.934;2022-12-10T11:47:25;99896.41;;;2.17;99.09
18533;BME280;9396;51.510;11.934;2022-12-10T11:50:07;99900.91;;;2.15;98.79
18533;BME280;9396;51.510;11.934;2022-12-10T11:52:48;99897.41;;;2.28;98.91
18533;BME280;9396;51.510;11.934;2022-12-10T11:55:26;99903.03;;;2.34;98.53
18533;BME280;9396;51.510;11.934;2022-12-10T11:58:04;99901.63;;;1.83;98.87
18533;BME280;9396;51.510;11.934;2022-12-10T12:00:44;99901.00;;;1.79;100.00
18533;BME280;9396;51.510;11.934;2022-12-10T12:03:32;99891.56;;;2.00;100.00
18533;BME280;9396;51.510;11.934;2022-12-10T12:06:15;99899.25;;;2.14;100.00
18533;BME280;9396;51.510;11.934;2022-12-10T12:08:54;99897.19;;;2.31;98.95
18533;BME280;9396;51.510;11.934;2022-12-10T12:11:46;99906.28;;;2.14;99.33
18533;BME280;9396;51.510;11.934;2022-12-10T12:14:20;99906.56;;;2.22;98.25
18533;BME280;9396;51.510;11.934;2022-12-10T12:16:52;99905.28;;;2.28;98.79
18533;BME280;9396;51.510;11.934;2022-12-10T12:19:25;99906.13;;;2.39;97.99
18533;BME280;9396;51.510;11.934;2022-12-10T12:21:59;99904.59;;;2.48;98.60
18533;BME280;9396;51.510;11.934;2022-12-10T12:24:32;99902.72;;;2.50;98.18
18533;BME280;9396;51.510;11.934;2022-12-10T12:27:08;99905.78;;;2.33;98.67
18533;BME280;9396;51.510;11.934;2022-12-10T12:29:41;99909.19;;;2.22;99.14
18533;BME280;9396;51.510;11.934;2022-12-10T12:32:17;99902.06;;;2.24;98.13
18533;BME280;9396;51.510;11.934;2022-12-10T12:34:47;99891.25;;;2.40;99.12
18533;BME280;9396;51.510;11.934;2022-12-10T12:37:19;99902.06;;;2.24;100.00
18533;BME280;9396;51.510;11.934;2022-12-10T12:39:52;99890.88;;;2.33;100.00
18533;BME280;9396;51.510;11.934;2022-12-10T12:42:27;99895.50;;;2.30;100.00
18533;BME280;9396;51.510;11.934;2022-12-10T12:44:59;99900.13;;;2.26;100.00
18533;BME280;9396;51.510;11.934;2022-12-10T12:47:34;99904.38;;;2.40;99.91
18533;BME280;9396;51.510;11.934;2022-12-10T12:50:15;99903.88;;;2.35;99.70
18533;BME280;9396;51.510;11.934;2022-12-10T12:52:51;99904.75;;;2.22;99.78
18533;BME280;9396;51.510;11.934;2022-12-10T12:55:21;99901.88;;;1.91;100.00
18533;BME280;9396;51.510;11.934;2022-12-10T12:57:55;99911.38;;;2.04;100.00
18533;BME280;9396;51.510;11.934;2022-12-10T13:00:28;99908.63;;;2.30;100.00
18533;BME280;9396;51.510;11.934;2022-12-10T13:03:08;99874.69;;;2.15;99.49
18533;BME280;9396;51.510;11.934;2022-12-10T13:05:43;99907.59;;;2.43;98.84
18533;BME280;9396;51.510;11.934;2022-12-10T13:08:29;99907.50;;;2.56;98.83
18533;BME280;9396;51.510;11.934;2022-12-10T13:10:59;99903.19;;;2.55;98.59
18533;BME280;9396;51.510;11.934;2022-12-10T13:13:30;99917.31;;;2.65;98.32
18533;BME280;9396;51.510;11.934;2022-12-10T13:19:16;99921.97;;;2.27;98.73